Mesa, AZ (85212)

6:44 AM MST on December 07, 2016 (GMT -0700)
Phoenix-Mesa Gateway Airport | | Change Station

Elev 1381 ft 33.31 °N, 111.66 °W | Updated 57 minutes ago

Scattered Clouds
Scattered Clouds
43 °F
Feels Like 40 °F
N
5
Wind Variable Wind from East

Today
High -- | Low -- °F
--% Chance of Precip.
Yesterday
High -- | Low -- °F
Precip. -- in
Pressure 29.97 in
Visibility 20.0 miles
Clouds Few 15000 ft
Scattered Clouds 25000 ft
Windchill 40 °F
Dew Point 36 °F
Humidity 76%
Rainfall 0.00 in
Snow Depth Not available.
7:17 AM 5:19 PM
First Quarter, 52% visible
METAR KIWA 071247Z 10004KT 20SM FEW150 SCT250 06/02 A2997
Pressure 29.97 in
Visibility 20.0 miles
Clouds Few 15000 ft
Scattered Clouds 25000 ft
Windchill 40 °F
Dew Point 36 °F
Humidity 76%
Rainfall 0.00 in
Snow Depth Not available.
7:17 AM 5:19 PM
First Quarter, 52% visible
METAR KIWA 071247Z 10004KT 20SM FEW150 SCT250 06/02 A2997

10-Day Weather Forecast

Almanac

Astronomy

Dec. 07, 2016 Rise Set
Actual Time
Civil Twilight
Nautical Twilight
Astronomical Twilight
Moon
Length of Visible Light
Length of Day
Tomorrow will be .
, % of the Moon is Illuminated

Today's Extremes

State Highs State Lows

Community

WunderPhotos

Upload Photos

1,956,114 photos uploaded!

WunderBlog® & News

Nearby

Air Quality

  Air Quality AQ Index Pollutant
Not available.

Snow Depth

Station Depth Elevation

Earthquake Activity

City Distance Mag. Time & Date
Minimum magnitude displayed is 2.5.

Coastal Water Temperatures

Place Temperature

Stations

Nearby Weather Stations

Station Location Temp. Windchill Dew Point Humidity Wind Precip. Elev Updated Type
                   

Watches & Warnings

There are currently no watches in effect.